Time;durP1;ratioP1;P1;durP2;ratioP2;P2;SDS_P1;SDS_P2;PMS_P1;PMS_P2;Temp;Humidity;BMP_temperature;BMP_pressure;BME280_temperature;BME280_humidity;BME280_pressure;Samples;Min_cycle;Max_cycle;Signal;HPM_P1;HPM_P2
2021/09/27 00:00:19;;;;;;;841.92;762.70;;;18.60;99.90;;;;;;5087808;28;20265;-74
2021/09/27 00:02:48;;;;;;;837.13;757.97;;;18.50;99.90;;;;;;5087960;28;20226;-74
2021/09/27 00:05:18;;;;;;;835.67;756.58;;;18.50;99.90;;;;;;5087959;28;20203;-74
2021/09/27 00:07:45;;;;;;;830.30;751.38;;;18.40;99.90;;;;;;5090166;28;20256;-74
2021/09/27 00:10:15;;;;;;;835.00;756.03;;;18.30;99.90;;;;;;5089049;28;20203;-74
2021/09/27 00:12:42;;;;;;;827.33;748.47;;;18.40;99.90;;;;;;5087410;28;20204;-74
2021/09/27 00:15:13;;;;;;;820.15;741.78;;;18.30;99.90;;;;;;5091509;28;20224;-74
2021/09/27 00:17:40;;;;;;;823.83;745.47;;;18.40;99.90;;;;;;5087997;28;20320;-74
2021/09/27 00:20:10;;;;;;;838.25;759.08;;;18.30;99.90;;;;;;5088256;28;20211;-74
2021/09/27 00:22:37;;;;;;;819.35;740.83;;;18.30;99.90;;;;;;5087430;28;20211;-74
2021/09/27 00:25:05;;;;;;;829.00;749.95;;;18.30;99.90;;;;;;5091786;28;20674;-74
2021/09/27 00:27:32;;;;;;;840.65;765.55;;;18.30;99.90;;;;;;5098017;28;20226;-74
2021/09/27 00:30:00;;;;;;;853.00;776.28;;;18.30;99.90;;;;;;5087612;28;20228;-74
2021/09/27 00:32:27;;;;;;;832.38;753.95;;;18.20;99.90;;;;;;5093382;28;20221;-74
2021/09/27 00:34:54;;;;;;;830.45;752.08;;;18.20;99.90;;;;;;5087903;28;20201;-74
2021/09/27 00:37:22;;;;;;;848.95;769.90;;;18.20;99.90;;;;;;5092614;28;20203;-74
2021/09/27 00:39:49;;;;;;;831.10;752.42;;;18.20;99.90;;;;;;5086843;28;20216;-74
2021/09/27 00:42:16;;;;;;;828.47;750.10;;;18.20;99.90;;;;;;5097272;28;20204;-74
2021/09/27 00:44:44;;;;;;;833.63;754.85;;;18.20;99.90;;;;;;5087561;28;20212;-74
2021/09/27 00:47:10;;;;;;;846.38;767.25;;;18.20;99.90;;;;;;5087549;28;20216;-74
2021/09/27 00:49:38;;;;;;;809.45;731.22;;;18.20;99.90;;;;;;5087385;28;20203;-74
2021/09/27 00:52:05;;;;;;;846.30;766.95;;;18.20;99.90;;;;;;5096479;28;20236;-74
2021/09/27 00:54:35;;;;;;;839.22;760.30;;;18.30;99.90;;;;;;5090036;28;20208;-74
2021/09/27 00:57:08;;;;;;;831.45;753.25;;;18.30;99.90;;;;;;5093049;28;20217;-74
2021/09/27 00:59:37;;;;;;;838.60;759.38;;;18.30;99.90;;;;;;5096467;28;20200;-74
2021/09/27 01:02:04;;;;;;;832.33;753.53;;;18.20;99.90;;;;;;5092784;28;20200;-74
2021/09/27 01:04:31;;;;;;;805.78;728.72;;;18.20;99.90;;;;;;5086206;28;20236;-74
2021/09/27 01:07:13;;;;;;;804.83;726.65;;;18.20;99.90;;;;;;5101099;28;20227;-74
2021/09/27 01:10:05;;;;;;;836.90;758.15;;;18.20;99.90;;;;;;5094480;28;20207;-74
2021/09/27 01:12:55;;;;;;;801.08;723.30;;;18.30;99.90;;;;;;5082820;28;20256;-74
2021/09/27 01:15:31;;;;;;;827.38;747.92;;;18.20;99.90;;;;;;5089280;28;20260;-74
2021/09/27 01:18:04;;;;;;;764.10;686.60;;;18.20;99.90;;;;;;5091942;28;20203;-74
2021/09/27 01:21:10;;;;;;;815.35;737.00;;;18.10;99.90;;;;;;5091311;28;20223;-74
2021/09/27 01:24:09;;;;;;;818.42;739.92;;;18.20;99.90;;;;;;5084942;28;20210;-74
2021/09/27 01:27:25;;;;;;;825.20;746.53;;;18.20;99.90;;;;;;5086345;28;20249;-74
2021/09/27 01:30:27;;;;;;;834.70;755.92;;;18.10;99.90;;;;;;5087342;28;20347;-74
2021/09/27 01:32:57;;;;;;;815.95;737.63;;;18.10;99.90;;;;;;5087108;28;20229;-74
2021/09/27 01:35:32;;;;;;;778.53;701.20;;;18.10;99.90;;;;;;5086971;28;20622;-74
2021/09/27 01:38:12;;;;;;;785.95;708.65;;;18.00;99.90;;;;;;5090597;28;20260;-74
2021/09/27 01:40:49;;;;;;;827.38;751.40;;;18.00;99.90;;;;;;5090330;28;20227;-74
2021/09/27 01:43:21;;;;;;;806.28;730.75;;;18.00;99.90;;;;;;5073696;28;20266;-74
2021/09/27 01:45:55;;;;;;;813.58;737.70;;;18.00;99.90;;;;;;5086497;28;20291;-74
2021/09/27 01:48:29;;;;;;;782.92;708.08;;;17.90;99.90;;;;;;5085324;28;20218;-74
2021/09/27 01:51:00;;;;;;;805.92;728.17;;;17.90;99.90;;;;;;5085818;28;20225;-74
2021/09/27 01:53:31;;;;;;;802.75;724.88;;;17.90;99.90;;;;;;5091037;28;20650;-74
2021/09/27 01:56:06;;;;;;;825.55;747.03;;;17.90;99.90;;;;;;5085910;28;20231;-74
2021/09/27 01:58:45;;;;;;;770.67;693.53;;;17.90;99.90;;;;;;5091735;28;20257;-74
2021/09/27 02:01:19;;;;;;;770.58;693.63;;;17.90;99.90;;;;;;5089817;28;20571;-74
2021/09/27 02:03:53;;;;;;;780.33;703.08;;;17.90;99.90;;;;;;5092662;28;20383;-74
2021/09/27 02:06:28;;;;;;;799.45;721.72;;;17.90;99.90;;;;;;5085527;28;20243;-74
2021/09/27 02:09:01;;;;;;;816.85;738.08;;;17.90;99.90;;;;;;5086011;28;20231;-74
2021/09/27 02:11:31;;;;;;;818.60;740.40;;;17.90;99.90;;;;;;5085726;28;20237;-74
2021/09/27 02:14:06;;;;;;;800.85;723.05;;;17.90;99.90;;;;;;5085684;28;20207;-74
2021/09/27 02:16:41;;;;;;;747.75;671.13;;;17.80;99.90;;;;;;5095925;28;20703;-74
2021/09/27 02:19:17;;;;;;;783.80;706.22;;;17.80;99.90;;;;;;5085426;28;20232;-74
2021/09/27 02:21:49;;;;;;;817.97;739.60;;;17.70;99.90;;;;;;5086574;28;20198;-74
2021/09/27 02:24:22;;;;;;;798.83;721.08;;;17.70;99.90;;;;;;5086651;28;20238;-74
2021/09/27 02:26:51;;;;;;;811.30;733.03;;;17.70;99.90;;;;;;5092445;28;20267;-74
2021/09/27 02:29:18;;;;;;;823.60;744.92;;;17.70;99.90;;;;;;5086218;28;20288;-74
2021/09/27 02:31:55;;;;;;;809.10;731.08;;;17.70;99.90;;;;;;5090635;28;20241;-74
2021/09/27 02:34:31;;;;;;;809.03;730.85;;;17.80;99.90;;;;;;5085809;28;20207;-75
2021/09/27 02:37:04;;;;;;;791.55;713.90;;;17.80;99.90;;;;;;5085643;28;20210;-74
2021/09/27 02:39:33;;;;;;;795.10;717.67;;;17.80;99.90;;;;;;5086495;28;20683;-74
2021/09/27 02:42:05;;;;;;;788.83;711.67;;;17.80;99.90;;;;;;5092050;28;20207;-74
2021/09/27 02:44:32;;;;;;;798.15;720.75;;;17.80;99.90;;;;;;5085943;28;20205;-74
2021/09/27 02:46:59;;;;;;;779.55;702.38;;;17.80;99.90;;;;;;5087695;28;20205;-74
2021/09/27 02:49:31;;;;;;;739.47;663.03;;;17.80;99.90;;;;;;5099174;28;20278;-74
2021/09/27 02:52:01;;;;;;;789.42;712.05;;;17.90;99.90;;;;;;5088943;28;20291;-74
2021/09/27 02:54:36;;;;;;;791.88;714.50;;;17.90;99.90;;;;;;5094449;28;20233;-74
2021/09/27 02:57:18;;;;;;;743.35;667.03;;;17.90;99.90;;;;;;5089764;28;20222;-74
2021/09/27 02:59:57;;;;;;;815.25;737.20;;;17.80;99.90;;;;;;5089452;28;20303;-74
2021/09/27 03:02:35;;;;;;;781.65;704.13;;;17.80;99.90;;;;;;5098703;28;20229;-74
2021/09/27 03:05:14;;;;;;;833.75;754.40;;;17.80;99.90;;;;;;5099749;28;20616;-74
2021/09/27 03:07:57;;;;;;;811.65;733.20;;;17.80;99.90;;;;;;5088376;28;20215;-74
2021/09/27 03:10:41;;;;;;;811.42;733.35;;;17.80;99.90;;;;;;5088912;28;20215;-74
2021/09/27 03:13:15;;;;;;;826.47;747.92;;;17.80;99.90;;;;;;5093968;28;20258;-74
2021/09/27 03:16:08;;;;;;;805.67;728.10;;;17.80;99.90;;;;;;5088914;28;20207;-74
2021/09/27 03:18:56;;;;;;;799.10;721.30;;;17.80;99.90;;;;;;5092035;28;20206;-74
2021/09/27 03:21:38;;;;;;;771.13;694.28;;;17.80;99.90;;;;;;5088746;28;20210;-74
2021/09/27 03:24:18;;;;;;;782.67;705.75;;;17.80;99.90;;;;;;5089234;28;20208;-74
2021/09/27 03:26:57;;;;;;;758.53;681.88;;;17.80;99.90;;;;;;5089338;28;20206;-74
2021/09/27 03:29:33;;;;;;;747.05;671.03;;;17.90;99.90;;;;;;5088447;28;20228;-74
2021/09/27 03:32:09;;;;;;;827.80;749.08;;;17.90;99.90;;;;;;5095317;28;20211;-74
2021/09/27 03:34:54;;;;;;;811.40;733.15;;;18.00;99.90;;;;;;5094660;28;20200;-74
2021/09/27 03:37:35;;;;;;;829.60;751.17;;;18.00;99.90;;;;;;5087740;28;20268;-73
2021/09/27 03:40:26;;;;;;;770.45;693.80;;;18.00;99.90;;;;;;5088206;28;20200;-74
2021/09/27 03:43:03;;;;;;;775.47;698.30;;;18.00;99.90;;;;;;5089055;28;20211;-74
2021/09/27 03:45:41;;;;;;;774.53;697.15;;;18.10;99.90;;;;;;5087876;28;20254;-74
2021/09/27 03:48:16;;;;;;;807.42;729.67;;;18.00;99.90;;;;;;5093645;28;20231;-74
2021/09/27 03:50:49;;;;;;;830.53;752.55;;;18.00;99.90;;;;;;5094459;28;20230;-74
2021/09/27 03:53:22;;;;;;;738.47;662.63;;;18.10;99.90;;;;;;5088374;28;20210;-74
2021/09/27 03:55:54;;;;;;;813.40;735.53;;;18.20;99.90;;;;;;5095149;28;20204;-74
2021/09/27 03:58:26;;;;;;;810.25;732.50;;;18.10;99.90;;;;;;5088261;28;20200;-74
2021/09/27 04:00:58;;;;;;;774.28;697.55;;;18.20;99.90;;;;;;5089320;28;20203;-74
2021/09/27 04:03:43;;;;;;;837.40;759.08;;;18.20;99.90;;;;;;5087038;28;20236;-74
2021/09/27 04:06:28;;;;;;;798.20;721.08;;;18.20;99.90;;;;;;5091100;28;20213;-74
2021/09/27 04:09:03;;;;;;;806.50;729.13;;;18.20;99.90;;;;;;5069793;28;20231;-74
2021/09/27 04:11:37;;;;;;;805.10;727.65;;;18.20;99.90;;;;;;5088037;28;20215;-74
2021/09/27 04:14:11;;;;;;;803.33;725.95;;;18.20;99.90;;;;;;5087199;28;20202;-74
2021/09/27 04:16:45;;;;;;;822.67;744.70;;;18.10;99.90;;;;;;5090593;28;20499;-74
2021/09/27 04:19:20;;;;;;;820.05;742.08;;;18.20;99.90;;;;;;5089609;28;20267;-74
2021/09/27 04:21:55;;;;;;;829.38;751.97;;;18.20;99.90;;;;;;5092289;28;20233;-74
2021/09/27 04:24:43;;;;;;;824.85;746.38;;;18.20;99.90;;;;;;5086785;28;20228;-74
2021/09/27 04:27:25;;;;;;;815.58;737.33;;;18.20;99.90;;;;;;5087305;28;20201;-74
2021/09/27 04:30:23;;;;;;;787.58;710.65;;;18.20;99.90;;;;;;5087935;28;20233;-74
2021/09/27 04:33:27;;;;;;;805.40;728.13;;;18.20;99.90;;;;;;5091235;28;20223;-74
2021/09/27 04:36:03;;;;;;;780.20;703.22;;;18.20;99.90;;;;;;5042350;28;20210;-74
2021/09/27 04:38:31;;;;;;;814.63;736.92;;;18.20;99.90;;;;;;5040715;28;20259;-74
2021/09/27 04:41:20;;;;;;;802.92;726.28;;;18.20;99.90;;;;;;5042707;28;20262;-74
2021/09/27 04:43:57;;;;;;;771.83;696.00;;;18.20;99.90;;;;;;5041798;28;20272;-74
2021/09/27 04:46:33;;;;;;;826.13;749.92;;;18.20;99.90;;;;;;5038174;28;20262;-74
2021/09/27 04:49:14;;;;;;;831.05;753.80;;;18.20;99.90;;;;;;5041938;28;20232;-74
2021/09/27 04:52:01;;;;;;;787.15;711.28;;;18.20;99.90;;;;;;5042239;28;20220;-74
2021/09/27 04:54:49;;;;;;;775.42;700.15;;;18.20;99.90;;;;;;5038400;28;20795;-74
2021/09/27 04:57:26;;;;;;;817.72;739.33;;;18.20;99.90;;;;;;5042249;28;20254;-74
2021/09/27 05:00:05;;;;;;;782.65;705.97;;;18.10;99.90;;;;;;5036455;28;20203;-74
2021/09/27 05:02:55;;;;;;;813.03;735.63;;;18.10;99.90;;;;;;5041809;28;20209;-74
2021/09/27 05:05:36;;;;;;;830.92;753.22;;;18.10;99.90;;;;;;5022161;28;20581;-74
2021/09/27 05:08:48;;;;;;;817.22;738.83;;;18.00;99.90;;;;;;5042251;28;20204;-74
2021/09/27 05:11:44;;;;;;;823.45;745.55;;;18.00;99.90;;;;;;4984915;28;20262;-74
2021/09/27 05:14:34;;;;;;;804.22;726.90;;;17.90;99.90;;;;;;4968247;28;20218;-74
2021/09/27 05:17:12;;;;;;;813.40;737.15;;;17.80;99.90;;;;;;4988422;28;20227;-74
2021/09/27 05:20:03;;;;;;;815.10;737.83;;;17.80;99.90;;;;;;4997795;28;20213;-74
2021/09/27 05:22:48;;;;;;;804.38;727.17;;;17.80;99.90;;;;;;4977536;28;20203;-74
2021/09/27 05:25:52;;;;;;;753.90;677.28;;;17.80;99.90;;;;;;4988527;28;20212;-74
2021/09/27 05:28:34;;;;;;;809.53;731.85;;;17.80;99.90;;;;;;4982766;28;20211;-74
2021/09/27 05:31:15;;;;;;;800.85;723.63;;;17.80;99.90;;;;;;4985234;28;20212;-74
2021/09/27 05:33:51;;;;;;;1080.45;994.95;;;17.90;99.90;;;;;;4987783;28;20465;-74
2021/09/27 05:36:30;;;;;;;850.33;771.85;;;18.00;99.90;;;;;;4993127;28;20226;-74
2021/09/27 05:39:07;;;;;;;774.75;698.03;;;17.90;99.90;;;;;;4996022;28;20209;-74
2021/09/27 05:41:55;;;;;;;788.10;711.25;;;18.00;99.90;;;;;;4984490;28;20229;-75
2021/09/27 05:44:34;;;;;;;758.45;682.20;;;17.90;99.90;;;;;;4985222;28;20209;-74
2021/09/27 05:47:13;;;;;;;749.80;673.75;;;17.90;99.90;;;;;;5036493;28;20211;-74
2021/09/27 05:49:51;;;;;;;763.90;687.45;;;17.90;99.90;;;;;;5090499;28;20215;-74
2021/09/27 05:52:26;;;;;;;771.78;695.33;;;17.90;99.90;;;;;;5091643;28;20240;-75
2021/09/27 05:55:01;;;;;;;798.45;721.25;;;18.00;99.90;;;;;;5095816;28;20203;-75
2021/09/27 05:57:39;;;;;;;825.20;747.22;;;17.90;99.90;;;;;;5101800;28;20263;-75
2021/09/27 06:00:12;;;;;;;817.60;740.83;;;18.00;99.90;;;;;;5086835;28;20359;-74
2021/09/27 06:02:55;;;;;;;776.38;698.85;;;18.00;99.90;;;;;;5086848;28;20203;-76
2021/09/27 06:05:28;;;;;;;833.25;754.60;;;18.00;99.90;;;;;;5085926;28;20260;-76
2021/09/27 06:08:00;;;;;;;832.63;754.40;;;18.00;99.90;;;;;;5090729;28;20236;-76
2021/09/27 06:10:35;;;;;;;840.00;761.45;;;18.00;99.90;;;;;;5107185;28;20228;-75
2021/09/27 06:13:12;;;;;;;826.17;748.10;;;18.10;99.90;;;;;;5086400;28;20664;-75
2021/09/27 06:15:45;;;;;;;812.47;734.65;;;18.20;99.90;;;;;;5086630;28;20214;-75
2021/09/27 06:18:26;;;;;;;773.75;696.65;;;18.20;99.90;;;;;;5085519;28;20203;-75
2021/09/27 06:21:03;;;;;;;814.40;736.75;;;18.20;99.90;;;;;;5099729;28;20201;-75
2021/09/27 06:23:47;;;;;;;801.47;724.35;;;18.10;99.90;;;;;;5089994;28;20235;-76
2021/09/27 06:26:16;;;;;;;753.22;677.30;;;18.10;99.90;;;;;;5095552;28;20232;-74
2021/09/27 06:28:50;;;;;;;764.50;688.10;;;18.10;99.90;;;;;;5103517;28;20203;-76
2021/09/27 06:31:25;;;;;;;779.80;703.13;;;18.10;99.90;;;;;;5098260;28;20201;-73
2021/09/27 06:34:00;;;;;;;815.25;737.75;;;18.20;99.90;;;;;;5090236;28;20660;-76
2021/09/27 06:36:33;;;;;;;763.45;687.38;;;18.20;99.90;;;;;;5096733;28;20203;-76
2021/09/27 06:39:04;;;;;;;837.30;758.80;;;18.20;99.90;;;;;;5094648;28;20208;-76
2021/09/27 06:41:35;;;;;;;845.08;766.40;;;18.20;99.90;;;;;;5089272;28;20201;-76
2021/09/27 06:44:02;;;;;;;782.13;704.67;;;18.20;99.90;;;;;;5088621;28;20255;-77
2021/09/27 06:46:29;;;;;;;850.65;771.70;;;18.20;99.90;;;;;;5090353;28;20202;-77
2021/09/27 06:48:58;;;;;;;839.03;760.35;;;18.30;99.90;;;;;;5089071;28;20214;-77
2021/09/27 06:51:25;;;;;;;801.38;723.42;;;18.30;99.90;;;;;;5089655;28;20210;-77
2021/09/27 06:53:52;;;;;;;814.40;736.22;;;18.20;99.90;;;;;;5089459;28;20210;-77
2021/09/27 06:56:24;;;;;;;837.33;760.70;;;18.20;99.90;;;;;;5089060;28;20261;-77
2021/09/27 06:58:51;;;;;;;850.45;773.38;;;18.20;99.90;;;;;;5089311;28;20210;-77
2021/09/27 07:01:17;;;;;;;855.72;777.25;;;18.20;99.90;;;;;;5100079;28;20245;-75
2021/09/27 07:03:44;;;;;;;808.13;730.53;;;18.20;99.90;;;;;;5098069;28;20248;-76
2021/09/27 07:06:13;;;;;;;839.58;761.08;;;18.20;99.90;;;;;;5091084;28;20207;-77
2021/09/27 07:08:40;;;;;;;815.45;737.05;;;18.20;99.90;;;;;;5090480;28;20649;-76
2021/09/27 07:11:08;;;;;;;848.15;769.38;;;18.30;99.90;;;;;;5087812;28;20231;-76
2021/09/27 07:13:35;;;;;;;844.05;765.10;;;18.40;99.90;;;;;;5087888;28;20199;-77
2021/09/27 07:16:02;;;;;;;862.58;783.10;;;18.40;99.90;;;;;;5088734;28;20233;-76
2021/09/27 07:18:29;;;;;;;827.85;749.53;;;18.40;99.90;;;;;;5088252;28;21436;-76
2021/09/27 07:20:58;;;;;;;829.55;750.95;;;18.50;99.90;;;;;;5094764;28;20233;-77
2021/09/27 07:23:35;;;;;;;868.50;789.15;;;18.60;99.90;;;;;;5088553;28;20673;-77
2021/09/27 07:26:02;;;;;;;864.75;785.38;;;18.60;99.90;;;;;;5103654;28;20609;-77
2021/09/27 07:28:29;;;;;;;854.08;774.88;;;18.70;99.90;;;;;;5087717;28;20246;-77
2021/09/27 07:30:56;;;;;;;865.75;786.53;;;18.80;99.90;;;;;;5093083;28;20719;-77
2021/09/27 07:33:23;;;;;;;869.47;789.50;;;18.90;99.90;;;;;;5088514;28;20219;-77
2021/09/27 07:35:50;;;;;;;857.92;778.58;;;18.80;99.90;;;;;;5096207;28;20234;-78
2021/09/27 07:38:17;;;;;;;874.95;795.90;;;18.90;99.90;;;;;;5091704;28;20227;-78
2021/09/27 07:40:46;;;;;;;864.35;785.33;;;19.00;99.90;;;;;;5090556;28;20205;-77
2021/09/27 07:43:13;;;;;;;865.20;786.10;;;19.10;99.90;;;;;;5098026;28;20620;-78
2021/09/27 07:45:40;;;;;;;882.28;802.40;;;19.20;99.90;;;;;;5098178;28;20211;-77
2021/09/27 07:48:11;;;;;;;901.45;821.03;;;19.40;99.90;;;;;;5101233;28;20195;-77
2021/09/27 07:50:42;;;;;;;889.58;809.55;;;19.60;99.90;;;;;;5100932;28;20270;-78
2021/09/27 07:53:11;;;;;;;927.38;846.13;;;19.90;99.90;;;;;;5101586;28;20204;-77
2021/09/27 07:55:39;;;;;;;924.00;844.45;;;20.10;99.90;;;;;;5095900;28;20269;-77
2021/09/27 07:58:07;;;;;;;942.80;862.30;;;20.40;99.90;;;;;;5099148;28;20201;-78
2021/09/27 08:00:37;;;;;;;946.47;865.53;;;20.70;99.90;;;;;;5091214;28;20210;-78
2021/09/27 08:03:04;;;;;;;947.17;865.63;;;21.10;99.90;;;;;;5090446;28;20266;-78
2021/09/27 08:05:39;;;;;;;940.28;859.05;;;21.40;99.90;;;;;;5093861;28;20199;-78
2021/09/27 08:10:48;;;;;;;970.33;887.97;;;21.90;99.90;;;;;;5100214;28;20215;-77
2021/09/27 08:13:16;;;;;;;967.78;884.92;;;22.00;99.90;;;;;;5095436;28;20732;-78
2021/09/27 08:15:47;;;;;;;983.83;901.42;;;22.10;99.90;;;;;;5094729;28;20203;-78
2021/09/27 08:18:15;;;;;;;1008.58;926.53;;;22.20;99.90;;;;;;5089877;28;20229;-78
2021/09/27 08:20:45;;;;;;;978.67;895.75;;;22.40;99.90;;;;;;5088339;28;20209;-75
2021/09/27 08:23:13;;;;;;;1001.05;920.60;;;22.50;99.90;;;;;;5087456;28;20205;-75
2021/09/27 08:25:41;;;;;;;978.97;896.30;;;22.50;99.90;;;;;;5087280;28;20208;-75
2021/09/27 08:28:10;;;;;;;970.20;887.47;;;22.40;99.90;;;;;;5092599;28;20200;-75
2021/09/27 08:30:42;;;;;;;967.55;885.00;;;22.30;99.90;;;;;;5087319;28;20228;-75
2021/09/27 08:33:09;;;;;;;983.28;900.40;;;22.10;99.90;;;;;;5086880;28;20231;-75
2021/09/27 08:35:37;;;;;;;973.35;890.95;;;22.00;99.90;;;;;;5087703;28;20227;-75
2021/09/27 08:38:07;;;;;;;978.53;895.80;;;21.90;99.90;;;;;;5088164;28;20286;-75
2021/09/27 08:40:52;;;;;;;977.97;895.40;;;22.00;99.90;;;;;;5091822;28;20208;-75
2021/09/27 08:43:24;;;;;;;963.40;880.85;;;22.00;99.90;;;;;;5087089;28;20198;-75
2021/09/27 08:45:54;;;;;;;981.33;898.72;;;22.20;99.90;;;;;;5093042;28;20201;-75
2021/09/27 08:48:27;;;;;;;977.67;894.17;;;22.30;99.90;;;;;;5087006;28;20223;-75
2021/09/27 08:50:56;;;;;;;1016.15;931.90;;;22.20;99.90;;;;;;5092563;28;20261;-75
2021/09/27 08:53:28;;;;;;;1017.47;932.92;;;22.30;99.90;;;;;;5089457;28;20819;-75
2021/09/27 08:56:02;;;;;;;993.90;910.15;;;22.40;99.90;;;;;;5101905;28;20200;-75
2021/09/27 08:58:37;;;;;;;1021.50;936.90;;;22.60;99.90;;;;;;5091133;28;20198;-75
2021/09/27 09:01:11;;;;;;;1005.40;921.13;;;22.90;99.90;;;;;;5098527;28;20804;-75
2021/09/27 09:03:44;;;;;;;1043.03;958.28;;;23.30;99.90;;;;;;5097864;28;20234;-74
2021/09/27 09:06:18;;;;;;;1026.90;942.85;;;23.50;99.90;;;;;;5090140;28;20227;-75
2021/09/27 09:08:47;;;;;;;1027.43;942.88;;;23.40;99.90;;;;;;5097354;28;20216;-75
2021/09/27 09:11:23;;;;;;;1009.60;925.67;;;23.40;99.90;;;;;;5088694;28;20224;-75
2021/09/27 09:13:57;;;;;;;1045.72;959.90;;;23.40;99.90;;;;;;5092579;28;20233;-75
2021/09/27 09:16:29;;;;;;;1052.78;966.83;;;23.40;99.90;;;;;;5086227;28;20199;-75
2021/09/27 09:18:58;;;;;;;1040.53;955.17;;;23.20;99.90;;;;;;5091688;28;20222;-75
2021/09/27 09:21:29;;;;;;;1047.00;961.53;;;23.00;99.90;;;;;;5089556;28;20672;-75
2021/09/27 09:24:01;;;;;;;1030.85;946.17;;;22.90;99.90;;;;;;5086329;28;20222;-75
2021/09/27 09:26:36;;;;;;;1027.97;943.38;;;23.00;99.90;;;;;;5086039;28;20228;-75
2021/09/27 09:29:04;;;;;;;1028.50;943.65;;;23.10;99.90;;;;;;5092511;28;20209;-75
2021/09/27 09:31:36;;;;;;;1024.88;940.03;;;22.90;99.90;;;;;;5096222;28;20232;-74
2021/09/27 09:34:05;;;;;;;1029.20;943.40;;;22.90;99.90;;;;;;5086108;28;20232;-75
2021/09/27 09:36:37;;;;;;;1032.82;948.03;;;23.00;99.90;;;;;;5085666;28;20254;-74
2021/09/27 09:39:13;;;;;;;1037.35;952.35;;;23.10;99.90;;;;;;5085463;28;20210;-75
2021/09/27 09:41:45;;;;;;;1017.13;932.88;;;23.10;99.90;;;;;;5086579;28;20203;-75
2021/09/27 09:44:22;;;;;;;1025.45;941.20;;;23.20;99.90;;;;;;5090629;28;20208;-75
2021/09/27 09:47:00;;;;;;;1001.67;918.20;;;23.10;99.90;;;;;;5085971;28;20206;-75
2021/09/27 09:49:29;;;;;;;1028.03;943.80;;;23.10;99.90;;;;;;5086399;28;20237;-75
2021/09/27 09:52:00;;;;;;;1022.90;938.92;;;23.00;99.90;;;;;;5086273;28;20221;-75
2021/09/27 09:54:38;;;;;;;1034.93;950.47;;;22.90;99.90;;;;;;5085954;28;20202;-75
2021/09/27 09:57:07;;;;;;;1023.58;940.80;;;22.80;99.90;;;;;;5085761;28;20202;-75
2021/09/27 09:59:41;;;;;;;1018.60;934.92;;;22.70;99.90;;;;;;5090020;28;20235;-74
2021/09/27 10:18:00;;;;;;;957.92;876.60;;;22.00;99.90;;;;;;5109541;28;20240;-74
2021/09/27 10:20:34;;;;;;;963.45;882.00;;;22.00;99.90;;;;;;5107777;28;20729;-74
2021/09/27 10:23:04;;;;;;;957.83;876.45;;;21.90;99.90;;;;;;5110361;28;20219;-74
2021/09/27 10:25:35;;;;;;;951.30;870.47;;;21.90;99.90;;;;;;5103115;28;20547;-74
2021/09/27 10:28:04;;;;;;;938.85;858.35;;;21.90;99.90;;;;;;5103642;28;20200;-74
2021/09/27 10:30:39;;;;;;;940.88;860.13;;;21.90;99.90;;;;;;5108997;28;20222;-74
2021/09/27 10:33:16;;;;;;;948.20;867.17;;;22.00;99.90;;;;;;5104860;28;20203;-74
2021/09/27 10:35:52;;;;;;;948.05;867.22;;;22.10;99.90;;;;;;5120071;28;20208;-74
2021/09/27 10:38:25;;;;;;;931.38;850.97;;;22.10;99.90;;;;;;5108112;28;20231;-74
2021/09/27 10:40:54;;;;;;;954.97;873.70;;;22.30;99.90;;;;;;5103234;28;20237;-74
2021/09/27 10:43:26;;;;;;;974.30;892.35;;;22.40;99.90;;;;;;5111776;28;20230;-74
2021/09/27 10:46:01;;;;;;;967.03;885.70;;;22.50;99.90;;;;;;5105901;28;20204;-74
2021/09/27 10:48:31;;;;;;;970.60;889.03;;;22.50;99.90;;;;;;5104180;28;20266;-74
2021/09/27 10:51:02;;;;;;;950.50;869.22;;;22.60;99.90;;;;;;5105775;28;20244;-74
2021/09/27 10:53:36;;;;;;;968.22;886.75;;;22.60;99.90;;;;;;5108420;28;20299;-74
2021/09/27 10:56:12;;;;;;;951.83;870.72;;;22.50;99.90;;;;;;5102737;28;20303;-74
2021/09/27 10:58:46;;;;;;;946.78;865.95;;;22.50;99.90;;;;;;5104242;28;20225;-74
2021/09/27 11:01:42;;;;;;;958.05;876.92;;;22.40;99.90;;;;;;5102527;28;20207;-74
2021/09/27 11:04:16;;;;;;;942.58;862.08;;;22.30;99.90;;;;;;5105520;28;20673;-74
2021/09/27 11:06:55;;;;;;;961.72;880.33;;;22.30;99.90;;;;;;5103284;28;20206;-74
2021/09/27 11:09:31;;;;;;;966.20;884.60;;;22.20;99.90;;;;;;5109680;28;20199;-74
2021/09/27 11:12:03;;;;;;;946.55;865.80;;;22.20;99.90;;;;;;5103954;28;20547;-74
2021/09/27 11:14:43;;;;;;;958.70;877.50;;;22.10;99.90;;;;;;5098939;28;20578;-74
2021/09/27 11:17:31;;;;;;;956.45;875.22;;;22.10;99.90;;;;;;5089563;28;20259;-74
2021/09/27 11:20:37;;;;;;;961.13;879.50;;;22.10;99.90;;;;;;5093046;28;20200;-74
2021/09/27 11:23:24;;;;;;;945.35;864.78;;;22.10;99.90;;;;;;5092812;28;20523;-74
2021/09/27 11:26:27;;;;;;;952.50;871.67;;;22.10;99.90;;;;;;5088094;28;20206;-74
2021/09/27 11:29:01;;;;;;;930.63;850.28;;;22.00;99.90;;;;;;5095031;28;20217;-74
2021/09/27 11:31:37;;;;;;;952.63;871.75;;;22.10;99.90;;;;;;5094192;28;20196;-74
2021/09/27 11:34:43;;;;;;;942.20;861.50;;;22.10;99.90;;;;;;5095164;28;20300;-74
2021/09/27 11:37:19;;;;;;;966.53;885.20;;;22.00;99.90;;;;;;5087297;28;20201;-74
2021/09/27 11:39:50;;;;;;;945.58;864.85;;;22.10;99.90;;;;;;5088144;28;20202;-74
2021/09/27 11:42:50;;;;;;;968.25;886.17;;;22.20;99.90;;;;;;5088780;28;20221;-74
2021/09/27 11:45:33;;;;;;;959.10;877.83;;;22.20;99.90;;;;;;5095312;28;20201;-74
2021/09/27 11:48:05;;;;;;;969.28;887.75;;;22.40;99.90;;;;;;5094288;28;20619;-74
2021/09/27 11:50:54;;;;;;;947.63;866.63;;;22.40;99.90;;;;;;5087859;28;20228;-74
2021/09/27 11:53:35;;;;;;;945.17;864.17;;;22.40;99.90;;;;;;5091035;28;20204;-74
2021/09/27 11:56:07;;;;;;;964.03;882.67;;;22.40;99.90;;;;;;5087904;28;20202;-74
2021/09/27 11:58:42;;;;;;;967.13;885.80;;;22.50;99.90;;;;;;5092215;28;20205;-74
2021/09/27 12:01:14;;;;;;;968.22;886.55;;;22.50;99.90;;;;;;5088195;28;20229;-74
2021/09/27 12:03:49;;;;;;;983.63;901.20;;;22.60;99.90;;;;;;5093836;28;20246;-74
2021/09/27 12:06:20;;;;;;;948.50;867.53;;;22.60;99.90;;;;;;5093074;28;20231;-73
2021/09/27 12:08:54;;;;;;;970.28;888.83;;;22.70;99.90;;;;;;5088147;28;20270;-74
2021/09/27 12:11:21;;;;;;;978.85;896.75;;;22.70;99.90;;;;;;5091112;28;21119;-74
2021/09/27 12:13:51;;;;;;;989.47;906.75;;;22.80;99.90;;;;;;5086737;28;20208;-74
2021/09/27 12:16:24;;;;;;;981.05;898.80;;;22.80;99.90;;;;;;5095658;28;20255;-74
2021/09/27 12:18:54;;;;;;;992.83;909.90;;;22.90;99.90;;;;;;5091780;28;20202;-74
2021/09/27 12:21:25;;;;;;;971.85;890.03;;;22.90;99.90;;;;;;5087607;28;20200;-74
2021/09/27 12:23:57;;;;;;;978.70;896.38;;;22.90;99.90;;;;;;5087021;28;20222;-74
2021/09/27 12:26:28;;;;;;;971.83;889.95;;;22.90;99.90;;;;;;5085701;28;20201;-74
2021/09/27 12:29:10;;;;;;;974.45;892.75;;;22.70;99.90;;;;;;5088039;28;20633;-74
2021/09/27 12:31:37;;;;;;;977.47;895.83;;;22.60;99.90;;;;;;5090468;28;20220;-74
2021/09/27 12:34:10;;;;;;;980.67;898.83;;;22.60;99.90;;;;;;5092117;28;20201;-74
2021/09/27 12:36:38;;;;;;;954.78;873.83;;;22.60;99.90;;;;;;5090205;28;20197;-74
2021/09/27 12:39:08;;;;;;;959.42;877.97;;;22.50;99.90;;;;;;5093129;28;20632;-74
2021/09/27 12:41:37;;;;;;;952.92;871.80;;;22.60;99.90;;;;;;5086846;28;20198;-74
2021/09/27 12:44:11;;;;;;;979.10;897.22;;;22.60;99.90;;;;;;5086995;28;20241;-74
2021/09/27 12:46:39;;;;;;;966.20;884.92;;;22.60;99.90;;;;;;5087131;28;20642;-74
2021/09/27 12:49:09;;;;;;;964.80;883.38;;;22.70;99.90;;;;;;5087354;28;20200;-74
2021/09/27 12:51:41;;;;;;;946.92;866.17;;;22.70;99.90;;;;;;5096320;28;20251;-74
2021/09/27 12:54:24;;;;;;;973.78;891.92;;;22.80;99.90;;;;;;5091552;28;20202;-74
2021/09/27 12:56:53;;;;;;;977.95;896.30;;;22.70;99.90;;;;;;5086831;28;20211;-74
2021/09/27 12:59:24;;;;;;;963.80;882.55;;;22.80;99.90;;;;;;5087136;28;20270;-74
2021/09/27 13:01:58;;;;;;;976.70;894.45;;;22.80;99.90;;;;;;5086994;28;20201;-74
2021/09/27 13:04:35;;;;;;;971.25;889.63;;;22.80;99.90;;;;;;5092160;28;20240;-73